Time;durP1;ratioP1;P1;durP2;ratioP2;P2;SDS_P1;SDS_P2;PMS_P1;PMS_P2;Temp;Humidity;BMP_temperature;BMP_pressure;BME280_temperature;BME280_humidity;BME280_pressure;Samples;Min_cycle;Max_cycle;Signal;HPM_P1;HPM_P2
2022/09/07 00:00:25;;;;;;;7.38;4.15;;;15.50;81.10;;;;;;4967018;28;20038;-75
2022/09/07 00:02:51;;;;;;;7.15;4.13;;;15.50;80.90;;;;;;4969603;28;20029;-75
2022/09/07 00:05:16;;;;;;;9.05;3.50;;;15.40;81.20;;;;;;4960838;28;20034;-75
2022/09/07 00:07:42;;;;;;;9.32;4.28;;;15.40;81.20;;;;;;4967329;28;20030;-75
2022/09/07 00:10:07;;;;;;;7.63;4.28;;;15.40;81.10;;;;;;4967939;28;20061;-75
2022/09/07 00:12:33;;;;;;;6.05;3.92;;;15.50;81.00;;;;;;4964860;28;20114;-75
2022/09/07 00:14:58;;;;;;;6.90;4.13;;;15.40;81.20;;;;;;4969976;28;20039;-75
2022/09/07 00:17:24;;;;;;;7.22;4.15;;;15.40;81.30;;;;;;4961839;28;20034;-75
2022/09/07 00:19:49;;;;;;;6.05;4.07;;;15.40;81.20;;;;;;4963477;28;20061;-75
2022/09/07 00:22:15;;;;;;;9.02;3.80;;;15.50;80.90;;;;;;4971359;28;20023;-75
2022/09/07 00:24:40;;;;;;;6.55;3.83;;;15.50;81.00;;;;;;4964082;28;20031;-75
2022/09/07 00:27:06;;;;;;;5.65;4.00;;;15.50;81.00;;;;;;4972723;28;20088;-76
2022/09/07 00:29:31;;;;;;;8.30;3.97;;;15.50;81.00;;;;;;4970986;28;20038;-75
2022/09/07 00:31:57;;;;;;;7.60;4.30;;;15.50;81.00;;;;;;4971432;28;20535;-75
2022/09/07 00:34:22;;;;;;;6.18;4.30;;;15.50;81.10;;;;;;4973460;28;20039;-75
2022/09/07 00:36:47;;;;;;;7.55;4.03;;;15.50;81.10;;;;;;4969523;28;20038;-76
2022/09/07 00:39:13;;;;;;;6.93;4.00;;;15.50;81.10;;;;;;4967502;28;20027;-75
2022/09/07 00:41:38;;;;;;;6.72;4.07;;;15.50;81.20;;;;;;4966705;28;20057;-75
2022/09/07 00:44:38;;;;;;;5.90;4.25;;;15.50;81.10;;;;;;4969206;28;20170;-76
2022/09/07 00:47:08;;;;;;;6.82;4.15;;;15.50;81.00;;;;;;4955085;28;20028;-76
2022/09/07 00:49:34;;;;;;;10.15;4.22;;;15.60;81.00;;;;;;4963822;28;20066;-75
2022/09/07 00:52:02;;;;;;;8.38;4.25;;;15.50;81.00;;;;;;4966668;28;20062;-75
2022/09/07 00:54:32;;;;;;;5.95;4.13;;;15.50;81.10;;;;;;4973294;28;20339;-75
2022/09/07 00:56:59;;;;;;;7.75;4.25;;;15.60;81.10;;;;;;4962426;28;20039;-75
2022/09/07 00:59:38;;;;;;;8.05;4.63;;;15.50;81.10;;;;;;4971002;28;20042;-75
2022/09/07 01:02:04;;;;;;;5.90;3.97;;;15.60;81.10;;;;;;4970498;28;20033;-75
2022/09/07 01:04:31;;;;;;;6.72;4.30;;;15.60;81.10;;;;;;4971609;28;20031;-75
2022/09/07 01:06:58;;;;;;;7.43;4.10;;;15.50;81.10;;;;;;4968665;28;20371;-75
2022/09/07 01:09:25;;;;;;;5.90;4.03;;;15.60;81.20;;;;;;4969537;28;20055;-75
2022/09/07 01:11:52;;;;;;;9.10;4.40;;;15.60;81.20;;;;;;4971348;28;20069;-76
2022/09/07 01:14:26;;;;;;;6.30;4.45;;;15.60;81.20;;;;;;4966910;28;20392;-75
2022/09/07 01:17:15;;;;;;;7.28;4.30;;;15.50;81.30;;;;;;4970330;28;20089;-75
2022/09/07 01:20:14;;;;;;;6.22;4.00;;;15.60;81.30;;;;;;4958914;28;20018;-75
2022/09/07 01:22:54;;;;;;;6.80;4.53;;;15.50;81.40;;;;;;4965387;28;20038;-76
2022/09/07 01:25:58;;;;;;;6.60;3.75;;;15.50;81.50;;;;;;4972964;28;20074;-76
2022/09/07 01:28:30;;;;;;;6.63;4.10;;;15.50;81.60;;;;;;4970870;28;20027;-75
2022/09/07 01:31:16;;;;;;;5.85;3.95;;;15.50;81.60;;;;;;4971238;28;20034;-76
2022/09/07 01:33:44;;;;;;;6.00;4.18;;;15.50;81.60;;;;;;4958076;28;20027;-76
2022/09/07 01:36:32;;;;;;;9.52;4.20;;;15.50;81.60;;;;;;4963623;28;20070;-75
2022/09/07 01:39:00;;;;;;;7.55;4.18;;;15.50;81.60;;;;;;4967090;28;20031;-76
2022/09/07 01:41:42;;;;;;;6.82;4.03;;;15.50;81.60;;;;;;4972990;28;20039;-75
2022/09/07 01:44:16;;;;;;;6.90;4.10;;;15.50;81.70;;;;;;4969357;28;20034;-75
2022/09/07 01:46:49;;;;;;;6.22;4.22;;;15.50;81.60;;;;;;4965689;28;20023;-75
2022/09/07 01:49:46;;;;;;;9.23;4.65;;;15.50;81.60;;;;;;4961237;28;20062;-75
2022/09/07 01:52:50;;;;;;;7.07;4.03;;;15.50;81.70;;;;;;4953643;28;20371;-75
2022/09/07 01:55:28;;;;;;;8.20;4.20;;;15.40;81.70;;;;;;4971365;28;20034;-75
2022/09/07 01:58:13;;;;;;;7.28;4.10;;;15.50;81.70;;;;;;4970675;28;20034;-75
2022/09/07 02:00:44;;;;;;;6.28;3.88;;;15.50;81.80;;;;;;4966130;28;20552;-75
2022/09/07 02:03:16;;;;;;;6.72;4.28;;;15.50;81.80;;;;;;4967517;28;20031;-75
2022/09/07 02:05:51;;;;;;;7.80;4.65;;;15.50;81.90;;;;;;4972032;28;20471;-75
2022/09/07 02:08:22;;;;;;;7.65;4.50;;;15.50;81.70;;;;;;4965781;28;20105;-75
2022/09/07 02:10:54;;;;;;;7.47;4.40;;;15.50;81.80;;;;;;4964389;28;20027;-75
2022/09/07 02:13:32;;;;;;;11.80;4.13;;;15.50;81.80;;;;;;4964127;28;20066;-75
2022/09/07 02:16:08;;;;;;;7.25;4.70;;;15.50;81.80;;;;;;4970197;28;20463;-75
2022/09/07 02:18:38;;;;;;;6.75;4.20;;;15.50;81.90;;;;;;4967162;28;20420;-75
2022/09/07 02:21:05;;;;;;;7.93;3.90;;;15.50;81.90;;;;;;4961568;28;20526;-75
2022/09/07 02:23:37;;;;;;;9.32;4.60;;;15.50;81.80;;;;;;4973167;28;20421;-75
2022/09/07 02:26:08;;;;;;;7.57;4.18;;;15.50;81.80;;;;;;4972837;28;20081;-75
2022/09/07 02:28:36;;;;;;;9.15;4.45;;;15.50;81.80;;;;;;4972946;28;20455;-75
2022/09/07 02:31:02;;;;;;;6.68;3.67;;;15.40;81.90;;;;;;4969383;28;20027;-75
2022/09/07 02:33:28;;;;;;;7.00;3.90;;;15.40;81.90;;;;;;4975187;28;20087;-75
2022/09/07 02:35:54;;;;;;;7.25;3.65;;;15.40;82.10;;;;;;4973657;28;20050;-75
2022/09/07 02:38:20;;;;;;;7.10;4.30;;;15.40;82.10;;;;;;4972649;28;20035;-75
2022/09/07 02:40:53;;;;;;;7.47;4.10;;;15.40;82.00;;;;;;4971473;28;20031;-76
2022/09/07 02:43:20;;;;;;;7.78;4.22;;;15.40;82.00;;;;;;4973639;28;20137;-75
2022/09/07 02:46:10;;;;;;;10.20;4.25;;;15.30;82.20;;;;;;4971920;28;20039;-75
2022/09/07 02:48:48;;;;;;;6.78;3.97;;;15.30;82.20;;;;;;4974900;28;20030;-75
2022/09/07 02:51:20;;;;;;;6.43;3.95;;;15.30;82.20;;;;;;4969050;28;20031;-75
2022/09/07 02:54:08;;;;;;;5.85;4.30;;;15.30;82.40;;;;;;4960825;28;20455;-75
2022/09/07 02:57:04;;;;;;;6.43;3.97;;;15.30;82.40;;;;;;4963615;28;20114;-75
2022/09/07 02:59:44;;;;;;;6.40;3.70;;;15.30;82.30;;;;;;4967392;28;20094;-75
2022/09/07 03:02:33;;;;;;;7.57;4.50;;;15.20;82.40;;;;;;4968440;28;20035;-75
2022/09/07 03:05:11;;;;;;;6.32;4.38;;;15.20;82.50;;;;;;4973739;28;20054;-75
2022/09/07 03:07:45;;;;;;;5.82;4.07;;;15.20;82.50;;;;;;4961362;28;20042;-75
2022/09/07 03:10:13;;;;;;;6.75;4.00;;;15.10;82.60;;;;;;4963656;28;20483;-75
2022/09/07 03:12:43;;;;;;;9.57;4.60;;;15.10;82.70;;;;;;4963502;28;20399;-75
2022/09/07 03:15:10;;;;;;;7.75;4.30;;;15.10;82.70;;;;;;4973703;28;20035;-75
2022/09/07 03:17:36;;;;;;;6.53;4.68;;;15.10;82.70;;;;;;4969282;28;20046;-75
2022/09/07 03:20:02;;;;;;;6.82;4.60;;;15.10;82.70;;;;;;4974240;28;20367;-75
2022/09/07 03:22:27;;;;;;;6.30;3.70;;;15.10;82.70;;;;;;4960896;28;20163;-75
2022/09/07 03:24:53;;;;;;;9.60;4.07;;;15.10;82.80;;;;;;4971752;28;20031;-75
2022/09/07 03:27:18;;;;;;;10.02;4.10;;;15.10;82.80;;;;;;4965125;28;20586;-75
2022/09/07 03:29:44;;;;;;;7.57;4.40;;;15.10;82.80;;;;;;4969608;28;20031;-75
2022/09/07 03:32:09;;;;;;;6.07;4.55;;;15.10;82.80;;;;;;4967611;28;20031;-75
2022/09/07 03:34:35;;;;;;;6.07;4.28;;;15.10;82.90;;;;;;4970149;28;20030;-76
2022/09/07 03:37:00;;;;;;;7.85;4.22;;;15.10;82.80;;;;;;4971525;28;20041;-75
2022/09/07 03:39:27;;;;;;;8.65;4.53;;;15.10;82.80;;;;;;4967556;28;20486;-76
2022/09/07 03:41:53;;;;;;;8.35;4.90;;;15.10;82.70;;;;;;4962213;28;20027;-75
2022/09/07 03:44:18;;;;;;;7.40;4.13;;;15.10;82.70;;;;;;4972194;28;20023;-75
2022/09/07 03:46:44;;;;;;;7.55;4.68;;;15.10;82.80;;;;;;4971277;28;20034;-75
2022/09/07 03:49:10;;;;;;;6.80;4.75;;;15.10;82.90;;;;;;4961769;28;20039;-75
2022/09/07 03:51:35;;;;;;;10.55;4.88;;;15.10;82.80;;;;;;4971327;28;20041;-75
2022/09/07 03:54:01;;;;;;;13.27;4.63;;;15.10;83.00;;;;;;4969536;28;20023;-75
2022/09/07 03:56:26;;;;;;;6.00;4.43;;;15.00;83.10;;;;;;4966596;28;20038;-75
2022/09/07 03:58:53;;;;;;;9.43;4.55;;;15.10;83.00;;;;;;4967968;28;20337;-75
2022/09/07 04:01:21;;;;;;;6.50;4.43;;;15.10;82.90;;;;;;4971345;28;20043;-75
2022/09/07 04:03:48;;;;;;;7.72;4.65;;;15.10;82.90;;;;;;4972314;28;20042;-75
2022/09/07 04:06:14;;;;;;;11.90;4.82;;;15.10;82.80;;;;;;4974346;28;20035;-75
2022/09/07 04:08:41;;;;;;;7.47;4.57;;;15.10;82.90;;;;;;4969121;28;20126;-75
2022/09/07 04:11:09;;;;;;;7.47;4.70;;;15.10;82.70;;;;;;4972387;28;20022;-75
2022/09/07 04:13:35;;;;;;;9.07;5.05;;;15.20;82.60;;;;;;4968362;28;20023;-75
2022/09/07 04:16:11;;;;;;;7.63;4.85;;;15.20;82.40;;;;;;4962183;28;20086;-75
2022/09/07 04:18:36;;;;;;;8.40;4.90;;;15.30;82.20;;;;;;4972360;28;20464;-75
2022/09/07 04:21:02;;;;;;;6.85;4.85;;;15.30;82.40;;;;;;4972013;28;20058;-76
2022/09/07 04:23:27;;;;;;;12.88;5.25;;;15.30;82.70;;;;;;4967382;28;20391;-75
2022/09/07 04:25:53;;;;;;;8.88;5.30;;;15.40;82.90;;;;;;4967717;28;20038;-75
2022/09/07 04:28:20;;;;;;;8.48;4.78;;;15.40;83.10;;;;;;4967995;28;20038;-75
2022/09/07 04:30:46;;;;;;;9.48;4.65;;;15.40;83.00;;;;;;4970920;28;20920;-75
2022/09/07 04:33:12;;;;;;;7.88;5.45;;;15.40;83.00;;;;;;4971017;28;20586;-75
2022/09/07 04:35:39;;;;;;;8.07;4.35;;;15.40;83.10;;;;;;4963719;28;20473;-75
2022/09/07 04:38:06;;;;;;;6.07;4.75;;;15.50;83.10;;;;;;4965996;28;20375;-75
2022/09/07 04:40:32;;;;;;;8.80;4.95;;;15.40;83.20;;;;;;4968007;28;20062;-75
2022/09/07 04:42:58;;;;;;;10.25;5.20;;;15.50;83.10;;;;;;4968653;28;20129;-75
2022/09/07 04:45:24;;;;;;;7.25;4.78;;;15.50;83.30;;;;;;4970756;28;20031;-75
2022/09/07 04:47:49;;;;;;;9.57;5.32;;;15.50;83.20;;;;;;4970674;28;20475;-75
2022/09/07 04:50:16;;;;;;;7.30;5.43;;;15.50;83.30;;;;;;4965030;28;20087;-76
2022/09/07 04:52:43;;;;;;;7.18;5.15;;;15.50;83.20;;;;;;4972714;28;20067;-76
2022/09/07 04:55:09;;;;;;;8.60;4.90;;;15.50;83.20;;;;;;4967686;28;20035;-75
2022/09/07 04:57:36;;;;;;;7.68;5.43;;;15.50;83.30;;;;;;4965791;28;20054;-75
2022/09/07 05:00:06;;;;;;;9.85;5.05;;;15.50;83.50;;;;;;4970333;28;20065;-76
2022/09/07 05:02:32;;;;;;;10.10;5.72;;;15.50;83.30;;;;;;4967839;28;20137;-75
2022/09/07 05:04:57;;;;;;;8.63;5.03;;;15.50;83.30;;;;;;4970551;28;20070;-75
2022/09/07 05:07:23;;;;;;;9.60;5.80;;;15.50;83.40;;;;;;4969349;28;20389;-75
2022/09/07 05:09:48;;;;;;;10.68;5.63;;;15.50;83.40;;;;;;4949866;29;20058;-76
2022/09/07 05:12:14;;;;;;;9.00;5.38;;;15.60;83.40;;;;;;4945382;29;20479;-75
2022/09/07 05:14:39;;;;;;;9.50;5.47;;;15.60;83.50;;;;;;4943767;29;20027;-76
2022/09/07 05:17:06;;;;;;;10.60;5.78;;;15.60;83.60;;;;;;4945852;29;20081;-75
2022/09/07 05:19:32;;;;;;;6.90;5.15;;;15.60;83.90;;;;;;4946443;29;20425;-75
2022/09/07 05:21:57;;;;;;;7.82;5.28;;;15.50;84.00;;;;;;4927280;29;20038;-75
2022/09/07 05:24:23;;;;;;;9.40;5.55;;;15.50;84.40;;;;;;4949311;29;20023;-75
2022/09/07 05:26:48;;;;;;;10.10;6.13;;;15.50;84.60;;;;;;4949896;29;20034;-75
2022/09/07 05:29:14;;;;;;;13.15;6.65;;;15.50;85.20;;;;;;4948524;29;20115;-76
2022/09/07 05:31:39;;;;;;;9.57;5.95;;;15.40;86.30;;;;;;4938617;29;20043;-75
2022/09/07 05:34:05;;;;;;;10.05;6.43;;;15.30;87.60;;;;;;4952351;29;21754;-75
2022/09/07 05:36:31;;;;;;;9.52;6.28;;;15.10;89.10;;;;;;4950242;29;20441;-75
2022/09/07 05:38:57;;;;;;;10.88;7.28;;;15.00;90.20;;;;;;4950028;29;20027;-75
2022/09/07 05:41:24;;;;;;;11.07;7.45;;;14.90;90.90;;;;;;4952109;29;20023;-75
2022/09/07 05:43:50;;;;;;;9.98;7.47;;;14.80;91.20;;;;;;4951753;29;20046;-75
2022/09/07 05:46:16;;;;;;;11.43;8.80;;;14.80;91.90;;;;;;4946706;29;20031;-75
2022/09/07 05:48:43;;;;;;;12.40;8.20;;;14.70;92.40;;;;;;4941335;29;20039;-75
2022/09/07 05:51:09;;;;;;;10.98;8.45;;;14.60;92.90;;;;;;4935921;29;20019;-75
2022/09/07 05:53:36;;;;;;;13.70;8.98;;;14.50;93.40;;;;;;4954074;29;20027;-76
2022/09/07 05:56:04;;;;;;;13.25;9.60;;;14.50;93.80;;;;;;4947596;28;20042;-76
2022/09/07 05:58:31;;;;;;;15.27;9.68;;;14.50;94.00;;;;;;4942901;28;20035;-76
2022/09/07 06:01:05;;;;;;;14.65;9.90;;;14.50;94.20;;;;;;4947857;28;20023;-75
2022/09/07 06:03:31;;;;;;;13.73;10.45;;;14.50;94.50;;;;;;4953526;29;20063;-75
2022/09/07 06:06:01;;;;;;;12.32;9.57;;;14.50;94.70;;;;;;4952389;29;20411;-75
2022/09/07 06:08:27;;;;;;;15.40;9.77;;;14.50;94.60;;;;;;4955978;28;20035;-75
2022/09/07 06:10:53;;;;;;;15.10;9.85;;;14.40;94.80;;;;;;4971940;28;20033;-75
2022/09/07 06:13:18;;;;;;;13.20;9.40;;;14.40;94.80;;;;;;4969360;28;20035;-75
2022/09/07 06:15:44;;;;;;;12.07;10.25;;;14.50;95.00;;;;;;4972996;28;20035;-76
2022/09/07 06:18:09;;;;;;;16.83;12.02;;;14.50;95.20;;;;;;4963031;28;20039;-75
2022/09/07 06:20:35;;;;;;;17.27;11.50;;;14.50;95.40;;;;;;4955760;28;20627;-74
2022/09/07 06:23:00;;;;;;;16.70;12.48;;;14.50;95.50;;;;;;4964848;28;20036;-75
2022/09/07 06:25:26;;;;;;;16.60;12.65;;;14.50;95.50;;;;;;4972747;28;20097;-75
2022/09/07 06:27:52;;;;;;;18.33;12.93;;;14.50;95.50;;;;;;4971071;28;20035;-75
2022/09/07 06:30:18;;;;;;;17.88;13.93;;;14.50;95.70;;;;;;4967935;28;20467;-74
2022/09/07 06:32:43;;;;;;;16.70;13.02;;;14.60;95.80;;;;;;4956880;28;20026;-75
2022/09/07 06:35:10;;;;;;;20.63;14.02;;;14.60;95.80;;;;;;4965490;28;20043;-75
2022/09/07 06:37:35;;;;;;;20.27;14.18;;;14.60;96.00;;;;;;4970691;28;20039;-74
2022/09/07 06:40:01;;;;;;;18.02;13.90;;;14.60;95.90;;;;;;4969205;28;20046;-73
2022/09/07 06:42:27;;;;;;;18.13;14.25;;;14.60;96.00;;;;;;4965259;28;20098;-70
2022/09/07 06:44:52;;;;;;;19.70;14.57;;;14.60;96.10;;;;;;4974926;28;20518;-70
2022/09/07 06:47:18;;;;;;;17.77;14.82;;;14.70;96.20;;;;;;4964223;28;20045;-74
2022/09/07 06:49:43;;;;;;;17.65;13.82;;;14.80;96.20;;;;;;4970336;28;20481;-70
2022/09/07 06:52:09;;;;;;;18.55;15.07;;;14.80;96.20;;;;;;4969465;28;20090;-71
2022/09/07 06:54:34;;;;;;;20.38;14.60;;;14.80;96.30;;;;;;4966504;28;20038;-71
2022/09/07 06:57:06;;;;;;;19.27;15.35;;;14.80;96.20;;;;;;4974030;28;20498;-71
2022/09/07 06:59:32;;;;;;;19.13;15.52;;;14.90;96.40;;;;;;4970854;28;20023;-71
2022/09/07 07:01:57;;;;;;;18.10;14.25;;;14.90;96.30;;;;;;4959379;28;20090;-70
2022/09/07 07:04:23;;;;;;;19.23;14.52;;;14.80;96.20;;;;;;4960628;28;20436;-70
2022/09/07 07:06:48;;;;;;;21.17;15.75;;;15.00;96.50;;;;;;4970198;28;20079;-71
2022/09/07 07:09:14;;;;;;;19.08;15.00;;;14.90;96.40;;;;;;4966576;28;20114;-72
2022/09/07 07:11:42;;;;;;;19.98;15.73;;;15.00;96.60;;;;;;4964951;28;20078;-71
2022/09/07 07:14:13;;;;;;;21.83;15.85;;;15.00;96.70;;;;;;4967002;28;20696;-71
2022/09/07 07:16:38;;;;;;;20.17;16.42;;;15.10;96.70;;;;;;4969039;28;20044;-73
2022/09/07 07:19:04;;;;;;;18.75;16.33;;;15.20;96.70;;;;;;4972195;28;20486;-71
2022/09/07 07:21:29;;;;;;;20.00;15.50;;;15.30;96.70;;;;;;4971652;28;20034;-72
2022/09/07 07:23:55;;;;;;;22.00;15.70;;;15.20;96.70;;;;;;4968385;28;20039;-71
2022/09/07 07:26:25;;;;;;;23.05;16.00;;;15.30;96.70;;;;;;4971980;28;20089;-71
2022/09/07 07:28:52;;;;;;;19.63;15.48;;;15.30;96.70;;;;;;4974255;28;20442;-71
2022/09/07 07:31:19;;;;;;;19.58;14.95;;;15.30;96.60;;;;;;4969225;28;20037;-72
2022/09/07 07:33:46;;;;;;;17.95;15.10;;;15.20;96.60;;;;;;4966273;28;20023;-71
2022/09/07 07:36:22;;;;;;;18.50;13.90;;;15.30;96.70;;;;;;4964842;28;20023;-71
2022/09/07 07:38:50;;;;;;;17.02;13.93;;;15.20;96.70;;;;;;4969457;28;20472;-71
2022/09/07 07:41:18;;;;;;;18.20;13.98;;;15.20;96.80;;;;;;4970339;28;20466;-72
2022/09/07 07:43:43;;;;;;;20.65;14.52;;;15.20;96.80;;;;;;4958554;28;20464;-72
2022/09/07 07:46:14;;;;;;;18.38;14.18;;;15.20;96.70;;;;;;4967722;28;20074;-73
2022/09/07 07:48:40;;;;;;;16.42;13.90;;;15.30;97.00;;;;;;4963738;28;20386;-72
2022/09/07 07:51:08;;;;;;;18.67;15.30;;;15.40;96.90;;;;;;4972557;28;20070;-71
2022/09/07 07:53:36;;;;;;;19.45;15.75;;;15.50;97.00;;;;;;4971940;28;20110;-72
2022/09/07 07:56:03;;;;;;;18.58;15.23;;;15.60;96.90;;;;;;4969870;28;20035;-71
2022/09/07 07:58:30;;;;;;;20.77;15.15;;;15.70;96.90;;;;;;4962549;28;20118;-71
2022/09/07 08:01:10;;;;;;;20.45;14.43;;;15.80;96.80;;;;;;4961927;28;20464;-72
2022/09/07 08:03:38;;;;;;;20.45;14.27;;;15.80;96.70;;;;;;4954745;28;20093;-72
2022/09/07 08:06:14;;;;;;;24.08;13.07;;;15.80;96.60;;;;;;4966833;28;20106;-72
2022/09/07 08:08:40;;;;;;;21.55;13.20;;;15.90;96.40;;;;;;4974037;28;20025;-72
2022/09/07 08:11:12;;;;;;;19.65;13.15;;;16.00;96.30;;;;;;4974531;28;20031;-71
2022/09/07 08:13:40;;;;;;;19.10;11.25;;;16.00;96.20;;;;;;4974249;28;20538;-72
2022/09/07 08:16:07;;;;;;;18.67;11.60;;;16.00;96.00;;;;;;4970120;28;20078;-72
2022/09/07 08:18:33;;;;;;;17.17;11.73;;;16.00;96.00;;;;;;4967108;28;20355;-72
2022/09/07 08:21:05;;;;;;;17.73;11.25;;;16.10;95.90;;;;;;4974736;28;20199;-73
2022/09/07 08:23:31;;;;;;;14.82;10.02;;;16.10;95.90;;;;;;4967113;28;20109;-72
2022/09/07 08:25:57;;;;;;;13.27;9.70;;;16.00;95.30;;;;;;4968365;28;20042;-74
2022/09/07 08:28:24;;;;;;;12.25;9.32;;;16.10;95.50;;;;;;4970255;28;20031;-72
2022/09/07 08:30:50;;;;;;;19.95;9.75;;;16.20;95.30;;;;;;4964461;28;20041;-72
2022/09/07 08:33:16;;;;;;;13.68;8.52;;;16.00;94.70;;;;;;4955695;28;20410;-72
2022/09/07 08:35:42;;;;;;;12.02;9.18;;;15.90;94.40;;;;;;4971178;28;20038;-72
2022/09/07 08:38:07;;;;;;;11.15;7.78;;;16.10;94.60;;;;;;4966188;28;20494;-72
2022/09/07 08:40:36;;;;;;;10.98;7.72;;;16.00;93.90;;;;;;4963936;28;20022;-72
2022/09/07 08:43:17;;;;;;;9.90;7.53;;;15.80;93.30;;;;;;4970090;28;20038;-73
2022/09/07 08:45:50;;;;;;;9.93;7.65;;;16.00;93.80;;;;;;4963123;28;20022;-71
2022/09/07 08:48:21;;;;;;;11.05;8.07;;;16.10;93.90;;;;;;4970679;28;20067;-70
2022/09/07 08:50:58;;;;;;;10.85;7.47;;;16.30;93.60;;;;;;4967962;28;20050;-71
2022/09/07 08:53:25;;;;;;;11.85;7.25;;;16.30;93.10;;;;;;4967523;28;20027;-73
2022/09/07 08:55:57;;;;;;;11.60;8.15;;;16.60;93.20;;;;;;4967710;28;20106;-72
2022/09/07 08:58:37;;;;;;;11.05;6.97;;;16.80;93.20;;;;;;4963360;28;20026;-72
2022/09/07 09:01:11;;;;;;;8.60;6.30;;;16.50;91.40;;;;;;4964683;28;20086;-73
2022/09/07 09:03:36;;;;;;;10.35;6.95;;;16.50;90.70;;;;;;4967558;28;20023;-72
2022/09/07 09:06:21;;;;;;;9.75;7.30;;;16.70;91.90;;;;;;4961750;28;20023;-73
2022/09/07 09:09:33;;;;;;;8.50;7.13;;;16.90;91.80;;;;;;4961772;28;20046;-73
2022/09/07 09:12:25;;;;;;;8.70;6.80;;;17.10;91.60;;;;;;4965616;28;20038;-72
2022/09/07 09:15:16;;;;;;;12.50;7.65;;;17.20;90.60;;;;;;4955468;28;20039;-72
2022/09/07 09:18:05;;;;;;;;;;;17.60;91.20;;;;;;4965989;28;20073;-73
2022/09/07 09:20:52;;;;;;;9.93;6.95;;;18.00;91.10;;;;;;4961519;28;19928;-72
2022/09/07 09:23:20;;;;;;;8.77;6.68;;;17.90;90.10;;;;;;4967399;28;20035;-74
2022/09/07 09:25:52;;;;;;;9.50;7.25;;;18.00;89.30;;;;;;4965206;28;20129;-74
2022/09/07 09:28:18;;;;;;;11.55;7.63;;;18.30;89.10;;;;;;4970010;28;20122;-72
2022/09/07 09:30:46;;;;;;;9.50;7.07;;;18.30;88.40;;;;;;4968854;28;20126;-72
2022/09/07 09:33:19;;;;;;;12.20;7.10;;;18.50;89.50;;;;;;4966655;28;20042;-73
2022/09/07 09:35:48;;;;;;;10.65;7.07;;;18.70;89.00;;;;;;4972185;28;20039;-72
2022/09/07 09:38:31;;;;;;;9.35;7.20;;;18.50;87.90;;;;;;4972231;28;20034;-72
2022/09/07 09:41:01;;;;;;;9.35;7.55;;;19.00;89.60;;;;;;4965689;28;20030;-73
2022/09/07 09:43:44;;;;;;;10.07;8.02;;;19.00;88.20;;;;;;4971078;28;20037;-72
2022/09/07 09:46:32;;;;;;;12.73;8.00;;;19.00;87.60;;;;;;4970732;28;20037;-72
2022/09/07 09:48:57;;;;;;;10.23;7.43;;;19.30;87.50;;;;;;4975311;28;20042;-72
2022/09/07 09:51:26;;;;;;;8.80;7.32;;;19.70;88.70;;;;;;4969814;28;20031;-72
2022/09/07 09:54:00;;;;;;;9.05;6.90;;;19.70;87.80;;;;;;4977064;28;20339;-72
2022/09/07 09:56:40;;;;;;;10.45;7.45;;;19.90;86.90;;;;;;4976266;28;20058;-73
2022/09/07 09:59:17;;;;;;;14.07;7.43;;;20.00;86.40;;;;;;4976017;28;20810;-73
2022/09/07 10:01:46;;;;;;;8.32;6.18;;;20.00;86.20;;;;;;4975169;28;20033;-73
2022/09/07 10:04:33;;;;;;;11.15;6.90;;;20.20;86.30;;;;;;4977214;28;20438;-72
2022/09/07 10:07:17;;;;;;;10.02;6.75;;;20.40;85.90;;;;;;4976598;28;20035;-72
2022/09/07 10:09:49;;;;;;;7.93;6.30;;;20.50;86.30;;;;;;4970293;28;20125;-72
2022/09/07 10:12:35;;;;;;;10.35;6.97;;;20.60;84.90;;;;;;4957863;28;20028;-72
2022/09/07 10:15:03;;;;;;;10.50;6.70;;;20.90;85.20;;;;;;4975613;28;20500;-72
2022/09/07 10:17:41;;;;;;;8.05;6.30;;;20.80;83.00;;;;;;4973610;28;20047;-72
2022/09/07 10:20:15;;;;;;;8.98;6.75;;;21.10;84.30;;;;;;4977028;28;20028;-72
2022/09/07 10:22:50;;;;;;;9.00;6.85;;;21.10;81.90;;;;;;4973542;28;20401;-72
2022/09/07 10:25:36;;;;;;;9.50;6.70;;;21.20;83.10;;;;;;4977149;28;20027;-72
2022/09/07 10:28:15;;;;;;;10.93;6.22;;;21.00;82.00;;;;;;4956631;28;20535;-72
2022/09/07 10:31:11;;;;;;;10.00;7.15;;;21.50;83.70;;;;;;4973273;28;20463;-72
2022/09/07 10:34:07;;;;;;;10.40;6.57;;;21.60;82.60;;;;;;4974958;28;20033;-72
2022/09/07 10:36:41;;;;;;;10.73;6.97;;;21.90;81.80;;;;;;4976757;28;20344;-72
2022/09/07 10:39:13;;;;;;;7.78;6.20;;;21.40;80.70;;;;;;4976309;28;20058;-72
2022/09/07 10:41:51;;;;;;;8.05;6.60;;;21.70;80.90;;;;;;4975880;28;20034;-72
2022/09/07 10:44:29;;;;;;;8.65;6.28;;;22.00;80.30;;;;;;4972267;28;20019;-72
2022/09/07 10:47:21;;;;;;;7.93;6.10;;;22.00;79.70;;;;;;4972453;28;20191;-72
2022/09/07 10:50:01;;;;;;;6.82;5.22;;;22.30;78.50;;;;;;4965370;28;20043;-73
2022/09/07 10:52:42;;;;;;;8.23;5.20;;;22.50;77.70;;;;;;4976755;28;20443;-73
2022/09/07 10:55:27;;;;;;;8.65;5.68;;;22.60;74.90;;;;;;4960186;28;20070;-72
2022/09/07 10:58:30;;;;;;;8.65;4.90;;;22.30;75.70;;;;;;4955768;28;20371;-73
2022/09/07 11:01:26;;;;;;;7.38;5.10;;;22.60;77.00;;;;;;4954473;29;20091;-72
2022/09/07 11:04:19;;;;;;;7.13;4.68;;;22.80;76.60;;;;;;4967142;28;20034;-72
2022/09/07 11:06:49;;;;;;;7.45;5.00;;;23.40;75.90;;;;;;4968194;28;20474;-73
2022/09/07 11:09:47;;;;;;;6.43;4.38;;;23.40;76.60;;;;;;4968472;28;20039;-72
2022/09/07 11:12:24;;;;;;;6.18;4.32;;;23.50;75.10;;;;;;4974128;28;20035;-73
2022/09/07 11:14:57;;;;;;;6.07;4.50;;;23.30;74.90;;;;;;4975015;28;20026;-73
2022/09/07 11:17:26;;;;;;;5.70;4.53;;;23.20;74.80;;;;;;4959329;28;20027;-72
2022/09/07 11:20:07;;;;;;;6.22;4.03;;;23.30;76.50;;;;;;4967889;28;20066;-73
2022/09/07 11:22:35;;;;;;;;;;;23.80;74.00;;;;;;4963023;28;20054;-72
2022/09/07 11:25:25;;;;;;;6.18;4.22;;;23.30;73.90;;;;;;4975546;28;19910;-73
2022/09/07 11:28:17;;;;;;;6.07;4.22;;;24.00;75.90;;;;;;4955344;28;20027;-73
2022/09/07 11:30:47;;;;;;;6.97;3.85;;;24.00;71.60;;;;;;4968936;28;20460;-73
2022/09/07 11:33:19;;;;;;;6.32;3.85;;;24.40;72.60;;;;;;4960804;28;20099;-73
2022/09/07 11:36:04;;;;;;;6.93;4.05;;;24.50;71.10;;;;;;4967724;28;20039;-73
2022/09/07 11:38:50;;;;;;;4.97;3.70;;;24.40;72.70;;;;;;4956149;28;20034;-73
2022/09/07 11:41:18;;;;;;;5.88;3.60;;;24.90;71.20;;;;;;4961099;28;20448;-73
2022/09/07 11:43:57;;;;;;;8.52;4.63;;;24.90;69.60;;;;;;4967288;28;20022;-73
2022/09/07 11:46:39;;;;;;;7.38;4.53;;;25.00;68.00;;;;;;4970963;28;20038;-73
2022/09/07 11:49:13;;;;;;;6.38;4.07;;;25.10;67.40;;;;;;4972705;28;20367;-73
2022/09/07 11:51:45;;;;;;;7.45;3.95;;;25.50;68.20;;;;;;4960528;28;20019;-72
2022/09/07 11:54:27;;;;;;;5.88;3.25;;;25.40;66.80;;;;;;4957603;28;20050;-73
2022/09/07 11:57:14;;;;;;;5.55;3.40;;;25.40;66.40;;;;;;4955606;28;20035;-72
2022/09/07 11:59:56;;;;;;;3.92;3.20;;;26.00;66.90;;;;;;4955101;29;20015;-73
2022/09/07 12:02:44;;;;;;;6.50;3.38;;;26.20;65.20;;;;;;4957398;28;20039;-73
2022/09/07 12:05:15;;;;;;;5.85;3.35;;;26.00;64.40;;;;;;4965783;28;20030;-79
2022/09/07 12:07:52;;;;;;;6.07;3.45;;;26.40;62.00;;;;;;4961823;28;20496;-72
2022/09/07 12:10:39;;;;;;;6.18;3.53;;;26.00;63.00;;;;;;4967344;28;20442;-72
2022/09/07 12:13:38;;;;;;;4.53;3.10;;;25.90;63.40;;;;;;4971258;28;20022;-72
2022/09/07 12:16:24;;;;;;;4.82;2.63;;;26.00;64.20;;;;;;4969598;28;20033;-72
2022/09/07 12:19:10;;;;;;;4.35;2.28;;;26.60;61.30;;;;;;4926646;28;20043;-73
2022/09/07 12:21:46;;;;;;;4.80;2.58;;;26.40;59.40;;;;;;4962628;28;20057;-72
2022/09/07 12:24:37;;;;;;;4.15;2.28;;;26.50;62.10;;;;;;4967416;28;20027;-73
2022/09/07 12:27:21;;;;;;;4.72;2.80;;;26.40;60.00;;;;;;4960926;28;20035;-74
2022/09/07 12:30:07;;;;;;;3.80;3.00;;;26.80;60.10;;;;;;4963496;28;20022;-71
2022/09/07 12:32:54;;;;;;;4.93;3.35;;;26.70;59.30;;;;;;4922073;28;20060;-71
2022/09/07 12:35:28;;;;;;;5.13;2.95;;;26.30;59.20;;;;;;4966974;28;20026;-72
2022/09/07 12:38:18;;;;;;;5.95;3.00;;;26.50;59.20;;;;;;4974160;28;20035;-72
2022/09/07 12:41:19;;;;;;;4.55;2.80;;;26.90;58.70;;;;;;4953508;28;20046;-73
2022/09/07 12:43:51;;;;;;;5.40;2.83;;;27.50;58.60;;;;;;4968067;28;20039;-71
2022/09/07 12:46:41;;;;;;;4.40;2.80;;;27.50;56.50;;;;;;4969132;28;20033;-73
2022/09/07 12:49:29;;;;;;;4.30;2.42;;;27.90;55.80;;;;;;4965634;28;20031;-72
2022/09/07 12:52:16;;;;;;;4.93;2.95;;;28.70;54.80;;;;;;4966747;28;20117;-72
2022/09/07 12:55:03;;;;;;;4.50;2.75;;;28.50;54.20;;;;;;4962362;28;20445;-72
2022/09/07 12:57:47;;;;;;;5.78;2.60;;;28.80;54.40;;;;;;4969365;28;20089;-72
2022/09/07 13:00:25;;;;;;;5.28;3.03;;;29.40;53.20;;;;;;4972834;28;20847;-72
2022/09/07 13:03:13;;;;;;;5.30;2.20;;;29.40;51.30;;;;;;4970585;28;20427;-72
2022/09/07 13:05:48;;;;;;;2.42;2.10;;;29.00;53.00;;;;;;4974109;28;20086;-72
2022/09/07 13:08:44;;;;;;;4.30;2.45;;;29.50;49.80;;;;;;4973770;28;20050;-72
2022/09/07 13:11:18;;;;;;;3.80;2.15;;;29.70;51.50;;;;;;4962897;28;20039;-72